createdAt,value
2023-04-14T00:01:34.511Z,5.60
2023-04-14T00:05:16.488Z,5.60
2023-04-14T00:08:58.982Z,5.60
2023-04-14T00:12:41.156Z,5.50
2023-04-14T00:16:23.225Z,5.50
2023-04-14T00:20:05.695Z,5.40
2023-04-14T00:23:47.568Z,5.40
2023-04-14T00:27:31.101Z,5.30
2023-04-14T00:31:13.170Z,5.20
2023-04-14T00:34:56.993Z,5.20
2023-04-14T00:38:39.738Z,5.20
2023-04-14T00:42:21.633Z,5.20
2023-04-14T00:46:03.691Z,5.10
2023-04-14T00:49:46.004Z,5.20
2023-04-14T00:53:28.188Z,5.20
2023-04-14T00:57:10.444Z,5.20
2023-04-14T01:00:55.600Z,5.20
2023-04-14T01:04:52.187Z,5.20
2023-04-14T01:08:35.523Z,5.30
2023-04-14T01:12:23.112Z,5.40
2023-04-14T01:16:14.744Z,5.50
2023-04-14T01:20:22.982Z,5.60
2023-04-14T01:24:11.151Z,5.60
2023-04-14T01:28:08.098Z,5.80
2023-04-14T01:32:06.152Z,5.80
2023-04-14T01:35:55.555Z,6.00
2023-04-14T01:39:41.698Z,6.00
2023-04-14T01:43:27.169Z,6.10
2023-04-14T01:47:13.580Z,6.20
2023-04-14T01:50:56.660Z,6.30
2023-04-14T01:54:41.485Z,6.40
2023-04-14T01:58:24.210Z,6.50
2023-04-14T02:02:08.947Z,6.50
2023-04-14T02:05:53.994Z,6.60
2023-04-14T02:09:38.005Z,6.60
2023-04-14T02:13:21.521Z,6.60
2023-04-14T02:17:05.916Z,6.60
2023-04-14T02:20:49.505Z,6.70
2023-04-14T02:24:31.440Z,6.70
2023-04-14T02:28:22.926Z,6.70
2023-04-14T02:32:09.713Z,6.80
2023-04-14T02:36:02.271Z,6.80
2023-04-14T02:39:51.386Z,6.80
2023-04-14T02:43:43.340Z,6.90
2023-04-14T02:47:35.395Z,6.90
2023-04-14T02:51:19.561Z,6.90
2023-04-14T02:55:04.081Z,6.90
2023-04-14T02:58:47.811Z,6.90
2023-04-14T03:02:31.059Z,7.00
2023-04-14T03:06:18.745Z,7.00
2023-04-14T03:10:02.086Z,7.10
2023-04-14T03:13:45.729Z,7.00
2023-04-14T03:17:28.782Z,7.10
2023-04-14T03:21:12.817Z,7.10
2023-04-14T03:25:01.174Z,7.10
2023-04-14T03:28:44.045Z,7.10
2023-04-14T03:32:29.538Z,7.10
2023-04-14T03:36:12.854Z,7.10
2023-04-14T03:40:00.654Z,7.20
2023-04-14T03:43:43.884Z,7.20
2023-04-14T03:47:28.748Z,7.20
2023-04-14T03:51:15.977Z,7.20
2023-04-14T03:55:00.460Z,7.20
2023-04-14T03:58:47.259Z,7.20
2023-04-14T04:02:29.885Z,7.20
2023-04-14T04:06:12.427Z,7.20
2023-04-14T04:09:56.045Z,7.20
2023-04-14T04:13:39.483Z,7.20
2023-04-14T04:17:24.613Z,7.20
2023-04-14T04:21:07.440Z,7.20
2023-04-14T04:24:51.431Z,7.20
2023-04-14T04:28:33.680Z,7.30
2023-04-14T04:32:15.817Z,7.30
2023-04-14T04:35:58.230Z,7.30
2023-04-14T04:39:40.344Z,7.30
2023-04-14T04:43:22.239Z,7.30
2023-04-14T04:47:06.247Z,7.20
2023-04-14T04:50:48.163Z,7.20
2023-04-14T04:54:30.096Z,7.20
2023-04-14T04:58:12.007Z,7.20
2023-04-14T05:01:54.029Z,7.20
2023-04-14T05:05:37.065Z,7.20
2023-04-14T05:09:18.965Z,7.20
2023-04-14T05:13:01.055Z,7.20
2023-04-14T05:16:42.919Z,7.20
2023-04-14T05:20:24.891Z,7.20
2023-04-14T05:24:09.350Z,7.10
2023-04-14T05:27:51.264Z,7.20
2023-04-14T05:31:33.176Z,7.10
2023-04-14T05:35:16.117Z,7.20
2023-04-14T05:38:58.205Z,7.20
2023-04-14T05:42:41.879Z,7.20
2023-04-14T05:46:23.980Z,7.20
2023-04-14T05:50:07.670Z,7.20
2023-04-14T05:53:49.583Z,7.20
2023-04-14T05:57:31.520Z,7.20
2023-04-14T06:01:13.394Z,7.20
2023-04-14T06:04:55.501Z,7.20
2023-04-14T06:08:37.658Z,7.20
2023-04-14T06:12:20.129Z,7.20
2023-04-14T06:16:02.031Z,7.30
2023-04-14T06:19:44.042Z,7.30
2023-04-14T06:23:26.834Z,7.30
2023-04-14T06:27:09.444Z,7.30
2023-04-14T06:30:51.681Z,7.30
2023-04-14T06:34:33.641Z,7.30
2023-04-14T06:38:15.518Z,7.30
2023-04-14T06:41:57.405Z,7.20
2023-04-14T06:45:39.409Z,7.20
2023-04-14T06:49:21.416Z,7.20
2023-04-14T06:53:04.738Z,7.20
2023-04-14T06:56:46.685Z,7.20
2023-04-14T07:00:28.600Z,7.20
2023-04-14T07:04:10.875Z,7.30
2023-04-14T07:07:52.890Z,7.30
2023-04-14T07:11:34.836Z,7.30
2023-04-14T07:15:16.973Z,7.30
2023-04-14T07:18:58.899Z,7.30
2023-04-14T07:22:40.796Z,7.30
2023-04-14T07:26:22.794Z,7.30
2023-04-14T07:30:05.340Z,7.20
2023-04-14T07:33:47.478Z,7.10
2023-04-14T07:37:29.470Z,7.00
2023-04-14T07:41:11.823Z,6.90
2023-04-14T07:44:53.715Z,6.90
2023-04-14T07:48:37.375Z,6.80
2023-04-14T07:52:19.595Z,6.80
2023-04-14T07:56:01.661Z,6.80
2023-04-14T07:59:43.587Z,6.70
2023-04-14T08:03:26.205Z,6.70
2023-04-14T08:07:08.280Z,6.70
2023-04-14T08:10:50.308Z,6.70
2023-04-14T08:14:32.322Z,6.70
2023-04-14T08:18:14.234Z,6.70
2023-04-14T08:21:57.093Z,6.70
2023-04-14T08:25:39.098Z,6.80
2023-04-14T08:29:21.620Z,6.80
2023-04-14T08:33:04.413Z,6.80
2023-04-14T08:36:47.724Z,6.80
2023-04-14T08:40:37.045Z,6.80
2023-04-14T08:44:19.077Z,6.80
2023-04-14T08:48:03.415Z,6.80
2023-04-14T08:51:47.532Z,6.80
2023-04-14T08:55:32.255Z,6.70
2023-04-14T08:59:14.318Z,6.70
2023-04-14T09:02:57.552Z,6.70
2023-04-14T09:06:40.808Z,6.70
2023-04-14T09:10:23.243Z,6.80
2023-04-14T09:14:06.205Z,6.80
2023-04-14T09:17:48.192Z,6.80
2023-04-14T09:21:51.535Z,6.90
2023-04-14T09:25:32.297Z,6.90
2023-04-14T09:29:14.209Z,7.00
2023-04-14T09:32:57.092Z,7.10
2023-04-14T09:36:39.033Z,7.20
2023-04-14T09:40:31.570Z,7.30
2023-04-14T09:44:13.552Z,7.40
2023-04-14T09:48:07.369Z,7.50
2023-04-14T09:51:49.541Z,7.60
2023-04-14T09:55:31.550Z,7.60
2023-04-14T09:59:13.468Z,7.80
2023-04-14T10:02:58.134Z,8.00
2023-04-14T10:06:41.296Z,8.20
2023-04-14T10:10:23.667Z,8.30
2023-04-14T10:14:06.741Z,8.40
2023-04-14T10:17:48.691Z,8.50
2023-04-14T10:21:30.765Z,8.70
2023-04-14T10:25:13.721Z,8.80
2023-04-14T10:28:56.823Z,8.90
2023-04-14T10:32:40.690Z,9.10
2023-04-14T10:36:29.016Z,9.30
2023-04-14T10:40:11.181Z,9.50
2023-04-14T10:43:53.167Z,9.80
2023-04-14T10:47:40.002Z,10.20
2023-04-14T10:51:33.979Z,10.40
2023-04-14T10:55:15.960Z,10.40
2023-04-14T10:58:59.241Z,10.40
2023-04-14T11:03:13.021Z,10.20
2023-04-14T11:06:57.259Z,10.00
2023-04-14T11:10:39.320Z,10.00
2023-04-14T11:14:28.420Z,10.00
2023-04-14T11:18:20.780Z,9.90
2023-04-14T11:22:02.854Z,9.90
2023-04-14T11:25:45.664Z,10.00
2023-04-14T11:29:27.597Z,10.50
2023-04-14T11:33:09.602Z,11.00
2023-04-14T11:36:51.692Z,11.30
2023-04-14T11:40:36.677Z,11.30
2023-04-14T11:44:22.207Z,11.10
2023-04-14T11:48:05.881Z,11.20
2023-04-14T11:51:47.885Z,11.40
2023-04-14T11:55:30.777Z,11.80
2023-04-14T11:59:12.818Z,11.90
2023-04-14T12:02:55.273Z,12.10
2023-04-14T12:06:39.184Z,12.10
2023-04-14T12:10:22.203Z,12.00
2023-04-14T12:14:05.041Z,11.90
2023-04-14T12:17:47.137Z,11.60
2023-04-14T12:21:29.330Z,11.40
2023-04-14T12:25:14.865Z,11.20
2023-04-14T12:28:58.118Z,11.00
2023-04-14T12:32:44.175Z,10.80
2023-04-14T12:36:45.282Z,10.60
2023-04-14T12:40:45.872Z,10.50
2023-04-14T12:44:27.910Z,10.40
2023-04-14T12:48:10.101Z,10.30
2023-04-14T12:51:52.060Z,10.20
2023-04-14T12:55:38.274Z,10.20
2023-04-14T12:59:20.265Z,10.20
2023-04-14T13:03:02.557Z,10.20
2023-04-14T13:06:44.556Z,10.20
2023-04-14T13:10:27.063Z,10.40
2023-04-14T13:14:08.981Z,10.50
2023-04-14T13:17:51.508Z,10.50
2023-04-14T13:21:35.124Z,10.50
2023-04-14T13:25:17.176Z,10.50
2023-04-14T13:28:59.478Z,10.40
2023-04-14T13:32:41.652Z,10.20
2023-04-14T13:36:23.620Z,10.20
2023-04-14T13:40:06.532Z,10.20
2023-04-14T13:43:48.489Z,10.20
2023-04-14T13:47:30.393Z,10.20
2023-04-14T13:51:12.405Z,10.20
2023-04-14T13:54:54.372Z,10.10
2023-04-14T13:58:38.550Z,10.10
2023-04-14T14:02:20.486Z,10.00
2023-04-14T14:06:02.425Z,10.00
2023-04-14T14:09:45.847Z,9.90
2023-04-14T14:13:27.770Z,9.90
2023-04-14T14:17:10.165Z,9.80
2023-04-14T14:20:52.481Z,9.90
2023-04-14T14:24:34.407Z,10.00
2023-04-14T14:28:16.343Z,10.10
2023-04-14T14:31:58.244Z,10.20
2023-04-14T14:35:40.357Z,10.10
2023-04-14T14:39:24.628Z,10.00
2023-04-14T14:43:06.905Z,10.00
2023-04-14T14:46:49.073Z,10.00
2023-04-14T14:50:31.306Z,10.00
2023-04-14T14:54:13.410Z,10.10
2023-04-14T14:57:55.763Z,10.10
2023-04-14T15:01:37.801Z,10.10
2023-04-14T15:05:19.724Z,10.20
2023-04-14T15:09:01.690Z,10.30
2023-04-14T15:12:43.658Z,10.40
2023-04-14T15:16:26.496Z,10.50
2023-04-14T15:20:09.016Z,10.60
2023-04-14T15:23:51.116Z,10.70
2023-04-14T15:27:33.116Z,10.70
2023-04-14T15:31:15.432Z,10.80
2023-04-14T15:34:57.562Z,10.90
2023-04-14T15:38:40.264Z,10.90
2023-04-14T15:42:22.279Z,11.00
2023-04-14T15:46:04.239Z,11.00
2023-04-14T15:49:49.886Z,11.10
2023-04-14T15:53:43.107Z,11.00
2023-04-14T15:57:25.100Z,11.00
2023-04-14T16:01:07.792Z,10.90
2023-04-14T16:04:49.813Z,10.80
2023-04-14T16:08:32.129Z,10.60
2023-04-14T16:12:14.012Z,10.40
2023-04-14T16:15:56.223Z,10.20
2023-04-14T16:19:38.583Z,10.00
2023-04-14T16:23:20.701Z,9.90
2023-04-14T16:27:02.650Z,9.90
2023-04-14T16:30:45.868Z,9.90
2023-04-14T16:34:28.059Z,9.90
2023-04-14T16:38:09.957Z,10.00
2023-04-14T16:41:52.072Z,10.00
2023-04-14T16:45:34.820Z,10.10
2023-04-14T16:49:17.472Z,10.10
2023-04-14T16:52:59.379Z,10.10
2023-04-14T16:56:41.462Z,10.10
2023-04-14T17:00:23.562Z,10.10
2023-04-14T17:04:05.994Z,10.10
2023-04-14T17:07:49.110Z,10.10
2023-04-14T17:11:31.016Z,10.00
2023-04-14T17:15:13.062Z,10.00
2023-04-14T17:18:55.609Z,9.90
2023-04-14T17:22:38.260Z,9.90
2023-04-14T17:26:20.483Z,9.80
2023-04-14T17:30:04.647Z,9.80
2023-04-14T17:33:47.621Z,9.80
2023-04-14T17:37:29.788Z,9.70
2023-04-14T17:41:13.796Z,9.70
2023-04-14T17:44:55.886Z,9.70
2023-04-14T17:48:38.066Z,9.70
2023-04-14T17:52:20.993Z,9.60
2023-04-14T17:56:02.972Z,9.50
2023-04-14T17:59:45.498Z,9.40
2023-04-14T18:03:28.544Z,9.30
2023-04-14T18:07:11.086Z,9.20
2023-04-14T18:10:52.995Z,9.10
2023-04-14T18:14:35.025Z,9.10
2023-04-14T18:18:16.927Z,9.10
2023-04-14T18:21:59.025Z,9.00
2023-04-14T18:29:26.434Z,8.90
2023-04-14T18:33:08.949Z,8.80
2023-04-14T18:36:51.325Z,8.80
2023-04-14T18:40:38.161Z,8.70
2023-04-14T18:44:20.037Z,8.60
2023-04-14T18:48:02.113Z,8.60
2023-04-14T18:51:44.274Z,8.60
2023-04-14T18:55:26.296Z,8.50
2023-04-14T18:59:21.513Z,8.50
2023-04-14T19:03:04.681Z,8.40
2023-04-14T19:06:48.975Z,8.40
2023-04-14T19:10:31.317Z,8.30
2023-04-14T19:14:13.335Z,8.30
2023-04-14T19:17:56.006Z,8.30
2023-04-14T19:21:38.402Z,8.20
2023-04-14T19:25:20.403Z,8.20
2023-04-14T19:29:02.502Z,8.20
2023-04-14T19:32:44.809Z,8.10
2023-04-14T19:36:26.769Z,8.10
2023-04-14T19:40:11.057Z,8.10
2023-04-14T19:43:53.162Z,8.10
2023-04-14T19:47:35.146Z,8.00
2023-04-14T19:51:17.106Z,8.00
2023-04-14T19:54:59.119Z,8.00
2023-04-14T19:58:41.138Z,8.00
2023-04-14T20:02:25.515Z,8.00
2023-04-14T20:06:12.600Z,7.90
2023-04-14T20:09:54.746Z,7.90
2023-04-14T20:13:38.253Z,7.90
2023-04-14T20:17:22.072Z,7.90
2023-04-14T20:21:04.762Z,7.90
2023-04-14T20:24:46.638Z,7.80
2023-04-14T20:28:28.736Z,7.80
2023-04-14T20:32:11.547Z,7.80
2023-04-14T20:35:54.204Z,7.80
2023-04-14T20:39:36.258Z,7.80
2023-04-14T20:43:18.348Z,7.70
2023-04-14T20:47:00.536Z,7.50
2023-04-14T20:50:44.506Z,7.30
2023-04-14T20:54:27.704Z,7.20
2023-04-14T20:58:09.717Z,7.10
2023-04-14T21:01:51.825Z,7.00
2023-04-14T21:05:33.791Z,6.80
2023-04-14T21:09:16.763Z,6.70
2023-04-14T21:15:29.553Z,6.70
2023-04-14T21:17:01.301Z,6.50
2023-04-14T21:20:43.544Z,6.50
2023-04-14T21:24:26.787Z,6.40
2023-04-14T21:28:08.822Z,6.30
2023-04-14T21:31:50.917Z,6.20
2023-04-14T21:35:32.881Z,6.10
2023-04-14T21:39:14.778Z,6.10
2023-04-14T21:42:56.686Z,6.00
2023-04-14T21:46:38.631Z,5.90
2023-04-14T21:50:20.813Z,5.90
2023-04-14T21:54:02.801Z,5.80
2023-04-14T21:57:49.252Z,5.80
2023-04-14T22:01:32.304Z,5.70
2023-04-14T22:05:15.289Z,5.70
2023-04-14T22:08:57.219Z,5.60
2023-04-14T22:12:43.993Z,5.60
2023-04-14T22:16:26.737Z,5.50
2023-04-14T22:20:09.798Z,5.50
2023-04-14T22:23:51.767Z,5.40
2023-04-14T22:27:34.459Z,5.40
2023-04-14T22:31:16.788Z,5.40
2023-04-14T22:34:58.742Z,5.40
2023-04-14T22:38:41.942Z,5.30
2023-04-14T22:42:24.005Z,5.20
2023-04-14T22:46:05.929Z,5.20
2023-04-14T22:49:47.851Z,5.10
2023-04-14T22:53:29.751Z,5.10
2023-04-14T22:57:11.763Z,5.00
2023-04-14T23:00:53.852Z,4.90
2023-04-14T23:04:35.887Z,4.90
2023-04-14T23:08:17.798Z,4.90
2023-04-14T23:12:01.987Z,4.80
2023-04-14T23:15:43.995Z,4.80
2023-04-14T23:19:26.667Z,4.80
2023-04-14T23:23:12.281Z,4.80
2023-04-14T23:26:54.382Z,4.80
2023-04-14T23:30:38.059Z,4.70
2023-04-14T23:34:19.978Z,4.80
2023-04-14T23:38:02.586Z,4.70
2023-04-14T23:41:44.496Z,4.70
2023-04-14T23:45:27.255Z,4.70
2023-04-14T23:49:23.817Z,4.60
2023-04-14T23:53:11.662Z,4.60
2023-04-14T23:56:53.564Z,4.60
